College Park, MD

7:47 AM EST on December 04, 2016 (GMT -0500)
College Park

Weather History for KCGS - June, 2013

Change the Weather History Date:

Friday, June 7, 2013

  Actual Average Record
Temperature  
Mean Temperature 70 °F -  
Max Temperature 72 °F 82 °F 94 °F (1984)
Min Temperature 67 °F 60 °F 45 °F (1954)
Cooling Degree Days 4    
Growing Degree Days 20 (Base 50)    
Moisture  
Dew Point 70 °F    
Average Humidity 100    
Maximum Humidity 100    
Minimum Humidity 96    
Precipitation  
Precipitation 0.00 in - - ()
Sea Level Pressure  
Sea Level Pressure 29.72 in    
Wind  
Wind Speed 2 mph (North)    
Max Wind Speed 9 mph    
Max Gust Speed 18 mph    
Visibility 6 miles    
Events      
Averages and records for this station are not official NWS values.
T = Trace of Precipitation, MM = Missing Value Source: NWS Daily Summary

Daily Weather History Graph

Daily Weather History Graph

Search for Another Location

Airport or City:

Trip Planner

Search our weather history database for the weather conditions in past years. The results will help you decide how hot, cold, wet, or windy it might be!

Date:

Astronomy

Jun. 07, 2013 Rise Set
Actual Time 5:42 AM EDT 8:31 PM EDT
Civil Twilight 5:10 AM EDT 9:03 PM EDT
Nautical Twilight 4:30 AM EDT 9:43 PM EDT
Astronomical Twilight 3:44 AM EDT 10:28 PM EDT
Moon 5:02 AM EDT (6/7) 7:44 PM EDT (6/7)
Length of Visible Light 15h 52m
Length of Day
14h 49m
Waning Crescent, 1% of the Moon is Illuminated
Jun 7
Waning Crescent
Jun 8
New
Jun 16
First Quarter
Jun 23
Full
Jun 30
Last Quarter

Hourly Weather History & Observations

Time (EDT) Temp. Dew Point Humidity Pressure Visibility Wind Dir Wind Speed Gust Speed Precip Events Conditions
12:00 AM 67.6 °F 67.6 °F 100% 29.86 in 10.0 mi East 4.6 mph - N/A   Overcast
12:20 AM 68.0 °F 68.0 °F 100% 29.86 in 7.0 mi Calm Calm - N/A   Overcast
12:40 AM 68.0 °F 68.0 °F 100% 29.85 in 4.0 mi ESE 3.5 mph - N/A   Overcast
1:00 AM 68.2 °F 68.2 °F 100% 29.85 in 1.5 mi Calm Calm - N/A   Overcast
1:20 AM 68.2 °F 68.2 °F 100% 29.84 in 1.2 mi East 3.5 mph - N/A   Overcast
1:40 AM 68.2 °F 68.2 °F 100% 29.82 in 2.0 mi Calm Calm - N/A   Overcast
2:00 AM 68.4 °F 68.4 °F 100% 29.82 in 2.5 mi ESE 4.6 mph - N/A   Overcast
2:20 AM 68.5 °F 68.5 °F 100% 29.81 in 4.0 mi East 4.6 mph - N/A   Overcast
2:40 AM 68.9 °F 68.9 °F 100% 29.80 in 2.0 mi ESE 3.5 mph - N/A   Overcast
3:00 AM 69.1 °F 69.1 °F 100% 29.79 in 7.0 mi Calm Calm - N/A   Overcast
3:20 AM 69.1 °F 69.1 °F 100% 29.79 in 3.0 mi Calm Calm - N/A   Overcast
3:40 AM 69.1 °F 69.1 °F 100% 29.78 in 2.5 mi Calm Calm - N/A   Overcast
4:00 AM 68.9 °F 68.9 °F 100% 29.78 in 2.0 mi Calm Calm - N/A   Overcast
4:20 AM 69.3 °F 69.3 °F 100% 29.77 in 2.0 mi Calm Calm - N/A   Overcast
4:40 AM 69.3 °F 69.3 °F 100% 29.77 in 1.8 mi Calm Calm - N/A   Overcast
5:00 AM 69.3 °F 69.3 °F 100% 29.77 in 1.8 mi Calm Calm - N/A   Overcast
5:20 AM 69.3 °F 69.3 °F 100% 29.77 in 1.8 mi Calm Calm - N/A   Overcast
5:40 AM 69.3 °F 69.3 °F 100% 29.77 in 1.8 mi Calm Calm - N/A   Overcast
6:00 AM 69.3 °F 69.3 °F 100% 29.78 in 1.5 mi Calm Calm - N/A   Overcast
6:20 AM 69.3 °F 69.3 °F 100% 29.78 in 1.2 mi Calm Calm - N/A   Overcast
6:40 AM 69.8 °F 69.8 °F 100% 29.79 in 2.5 mi Calm Calm - N/A   Overcast
7:00 AM 69.8 °F 69.8 °F 100% 29.79 in 4.0 mi Calm Calm - N/A   Overcast
7:20 AM 70.0 °F 70.0 °F 100% 29.79 in 5.0 mi Calm Calm - N/A   Overcast
7:40 AM 70.3 °F 70.3 °F 100% 29.79 in 7.0 mi Calm Calm - N/A   Overcast
8:00 AM 70.7 °F 70.7 °F 100% 29.79 in 7.0 mi Calm Calm - N/A   Overcast
8:20 AM 70.7 °F 70.7 °F 100% 29.79 in 5.0 mi Calm Calm - N/A   Overcast
8:40 AM 70.7 °F 70.7 °F 100% 29.80 in 5.0 mi Calm Calm - N/A   Overcast
9:00 AM 70.7 °F 70.7 °F 100% 29.79 in 4.0 mi Calm Calm - N/A   Overcast
9:20 AM 70.9 °F 70.9 °F 100% 29.79 in 5.0 mi Calm Calm - N/A   Overcast
9:40 AM 71.2 °F 71.2 °F 100% 29.78 in 5.0 mi Calm Calm - N/A   Overcast
10:00 AM 70.9 °F 70.9 °F 100% 29.78 in 4.0 mi Calm Calm - N/A   Overcast
10:20 AM 71.1 °F 71.1 °F 100% 29.77 in 5.0 mi Calm Calm - N/A   Overcast
10:40 AM 71.2 °F 71.2 °F 100% 29.77 in 7.0 mi Calm Calm - N/A   Overcast
11:00 AM 71.8 °F 71.8 °F 100% 29.76 in 7.0 mi Calm Calm - N/A   Overcast
11:20 AM 72.0 °F 72.0 °F 100% 29.76 in 5.0 mi Calm Calm - N/A   Overcast
11:40 AM 72.0 °F 72.0 °F 100% 29.76 in 2.5 mi Calm Calm - N/A   Overcast
12:05 PM 71.8 °F 71.8 °F 100% 29.75 in 2.5 mi Calm Calm - N/A   Overcast
12:25 PM 71.6 °F 71.6 °F 100% 29.74 in 4.0 mi Calm Calm - N/A   Mostly Cloudy
12:45 PM 71.6 °F 71.6 °F 100% 29.73 in 3.0 mi NNE 4.6 mph - N/A   Overcast
1:05 PM 71.8 °F 71.8 °F 100% 29.71 in 5.0 mi NNE 4.6 mph - N/A   Mostly Cloudy
1:25 PM 72.1 °F 72.1 °F 100% 29.69 in 5.0 mi NNE 4.6 mph - N/A   Overcast
1:45 PM 72.5 °F 72.5 °F 100% 29.69 in 10.0 mi NNE 5.8 mph - N/A   Overcast
2:05 PM 72.1 °F 72.1 °F 100% 29.68 in 7.0 mi North 5.8 mph - N/A   Overcast
2:25 PM 72.1 °F 72.1 °F 100% 29.68 in 7.0 mi ENE 3.5 mph - N/A   Overcast
2:45 PM 71.6 °F 71.6 °F 100% 29.67 in 5.0 mi NE 3.5 mph - N/A   Overcast
3:05 PM 71.6 °F 71.6 °F 100% 29.64 in 3.0 mi NNE 8.1 mph - N/A   Overcast
3:25 PM 71.6 °F 71.6 °F 100% 29.65 in 7.0 mi Calm Calm - N/A   Overcast
3:45 PM 71.6 °F 71.6 °F 100% 29.65 in 5.0 mi Calm Calm - N/A   Overcast
4:05 PM 71.8 °F 71.8 °F 100% 29.62 in 7.0 mi North 4.6 mph - N/A   Overcast
4:25 PM 71.6 °F 71.6 °F 100% 29.63 in 7.0 mi Calm Calm - N/A   Overcast
4:45 PM 71.2 °F 71.2 °F 100% 29.60 in 7.0 mi NE 5.8 mph - N/A   Mostly Cloudy
5:05 PM 71.2 °F 71.2 °F 100% 29.60 in 10.0 mi NE 4.6 mph - N/A   Mostly Cloudy
5:25 PM 71.6 °F 71.6 °F 100% 29.60 in 7.0 mi North 3.5 mph - N/A   Overcast
5:45 PM 71.6 °F 71.6 °F 100% 29.59 in 10.0 mi North 3.5 mph - N/A   Overcast
6:05 PM 72.0 °F 72.0 °F 100% 29.59 in 10.0 mi Calm Calm - N/A   Overcast
6:25 PM 72.0 °F 72.0 °F 100% 29.59 in 7.0 mi North 6.9 mph - N/A   Overcast
6:40 PM 72.1 °F 72.0 °F 99% 29.59 in 4.0 mi North 3.5 mph - N/A   Overcast
7:05 PM 72.1 °F 71.6 °F 98% 29.58 in 10.0 mi North 8.1 mph - N/A   Overcast
7:25 PM 72.1 °F 71.6 °F 98% 29.60 in 5.0 mi NNW 3.5 mph - N/A   Overcast
7:45 PM 71.6 °F 71.6 °F 100% 29.59 in 10.0 mi NNW 4.6 mph - N/A   Overcast
8:05 PM 71.6 °F 70.9 °F 98% 29.60 in 10.0 mi NNW 6.9 mph - N/A   Overcast
8:25 PM 71.2 °F 70.7 °F 98% 29.60 in 10.0 mi NNW 6.9 mph - N/A   Overcast
8:45 PM 71.1 °F 70.3 °F 98% 29.60 in 10.0 mi NW 9.2 mph - N/A   Overcast
9:05 PM 70.7 °F 70.0 °F 98% 29.61 in 10.0 mi NNW 8.1 mph 17.3 mph N/A   Overcast
9:25 PM 69.3 °F 68.9 °F 99% 29.62 in 10.0 mi NNW 8.1 mph 18.4 mph N/A   Overcast
9:45 PM 69.1 °F 68.4 °F 98% 29.63 in 10.0 mi NNW 5.8 mph - N/A   Overcast
10:05 PM 68.9 °F 68.2 °F 98% 29.64 in 10.0 mi NW 8.1 mph - N/A   Mostly Cloudy
10:25 PM 68.4 °F 68.0 °F 99% 29.66 in 10.0 mi NW 6.9 mph - N/A   Overcast
10:45 PM 68.2 °F 67.8 °F 99% 29.67 in 10.0 mi NW 5.8 mph - N/A   Overcast
11:05 PM 68.2 °F 67.5 °F 98% 29.68 in 10.0 mi NW 6.9 mph - N/A   Overcast
11:25 PM 68.4 °F 67.3 °F 96% 29.68 in 10.0 mi NW 8.1 mph - N/A   Overcast
11:45 PM 68.5 °F 67.5 °F 96% 29.69 in 10.0 mi NW 5.8 mph - N/A   Overcast